Time;durP1;ratioP1;P1;durP2;ratioP2;P2;SDS_P1;SDS_P2;PMS_P1;PMS_P2;Temp;Humidity;BMP_temperature;BMP_pressure;BME280_temperature;BME280_humidity;BME280_pressure;Samples;Min_cycle;Max_cycle;Signal;HPM_P1;HPM_P2
2022/04/20 00:00:42;;;;;;;0.82;0.77;;;9.10;48.90;;;;;;5125447;27;20238;-84
2022/04/20 00:03:09;;;;;;;0.80;0.80;;;9.10;49.40;;;;;;5117397;27;20196;-84
2022/04/20 00:05:36;;;;;;;0.70;0.28;;;9.00;49.80;;;;;;5105292;28;20268;-83
2022/04/20 00:08:04;;;;;;;0.30;0.20;;;9.00;49.90;;;;;;5112024;28;20221;-83
2022/04/20 00:10:33;;;;;;;0.32;0.32;;;9.00;50.20;;;;;;5111664;28;20207;-83
2022/04/20 00:13:03;;;;;;;0.65;0.43;;;8.80;50.10;;;;;;5113192;27;20200;-83
2022/04/20 00:15:32;;;;;;;0.40;0.30;;;9.20;50.60;;;;;;5130423;28;20226;-83
2022/04/20 00:17:59;;;;;;;3.97;0.45;;;8.90;51.00;;;;;;5119211;27;20232;-84
2022/04/20 00:20:26;;;;;;;0.60;0.60;;;8.70;51.10;;;;;;5120227;28;20254;-83
2022/04/20 00:22:54;;;;;;;0.40;0.30;;;8.70;52.20;;;;;;5116957;27;20682;-83
2022/04/20 00:25:22;;;;;;;0.40;0.40;;;8.70;51.60;;;;;;5130763;27;20195;-84
2022/04/20 00:27:51;;;;;;;0.30;0.30;;;8.70;51.60;;;;;;5131416;27;20197;-84
2022/04/20 00:30:19;;;;;;;0.68;0.32;;;8.70;51.60;;;;;;5111947;28;20225;-83
2022/04/20 00:32:47;;;;;;;0.60;0.50;;;8.70;52.00;;;;;;5125876;28;20216;-83
2022/04/20 00:35:14;;;;;;;0.30;0.20;;;8.50;53.00;;;;;;5131096;27;20646;-84
2022/04/20 00:37:44;;;;;;;0.40;0.40;;;8.60;52.30;;;;;;5097536;28;20203;-83
2022/04/20 00:40:13;;;;;;;0.40;0.40;;;8.60;52.40;;;;;;5117542;28;20196;-85
2022/04/20 00:42:41;;;;;;;0.30;0.25;;;8.50;52.40;;;;;;5123557;28;20665;-84
2022/04/20 00:45:09;;;;;;;0.30;0.20;;;8.50;52.30;;;;;;5125158;27;20195;-84
2022/04/20 00:47:39;;;;;;;0.43;0.43;;;8.50;52.50;;;;;;5118168;27;20693;-84
2022/04/20 00:50:08;;;;;;;1.00;0.90;;;8.50;52.70;;;;;;5119650;28;20203;-84
2022/04/20 00:52:35;;;;;;;0.30;0.20;;;8.40;52.90;;;;;;5123715;27;20252;-83
2022/04/20 00:55:02;;;;;;;0.30;0.20;;;8.40;52.80;;;;;;5131870;27;20263;-85
2022/04/20 00:57:29;;;;;;;1.23;1.13;;;8.40;52.70;;;;;;5116560;27;20813;-85
2022/04/20 00:59:58;;;;;;;1.05;0.95;;;8.30;52.70;;;;;;5121865;28;20217;-84
2022/04/20 01:02:25;;;;;;;0.35;0.35;;;8.30;53.00;;;;;;5131550;27;20199;-84
2022/04/20 01:04:53;;;;;;;0.50;0.38;;;8.30;53.00;;;;;;5116201;27;20194;-84
2022/04/20 01:07:22;;;;;;;0.90;0.45;;;8.20;53.20;;;;;;5115134;28;20734;-84
2022/04/20 01:09:49;;;;;;;0.30;0.25;;;8.20;53.10;;;;;;5113460;28;20208;-83
2022/04/20 01:12:21;;;;;;;0.40;0.40;;;8.10;53.40;;;;;;5115248;28;20216;-84
2022/04/20 01:14:48;;;;;;;0.95;0.95;;;8.10;53.00;;;;;;5123804;28;20198;-85
2022/04/20 01:17:16;;;;;;;0.30;0.20;;;8.10;53.30;;;;;;5131124;27;20209;-84
2022/04/20 01:19:43;;;;;;;0.30;0.20;;;8.10;53.30;;;;;;5132995;27;20197;-84
2022/04/20 01:22:11;;;;;;;0.40;0.30;;;8.10;53.50;;;;;;5130801;27;20204;-83
2022/04/20 01:24:40;;;;;;;1.65;1.55;;;8.00;53.30;;;;;;5129984;28;20294;-85
2022/04/20 01:27:07;;;;;;;0.30;0.30;;;8.00;53.60;;;;;;5120222;27;20262;-84
2022/04/20 01:29:35;;;;;;;0.35;0.30;;;8.00;53.40;;;;;;5113338;28;21030;-83
2022/04/20 01:32:02;;;;;;;0.40;0.38;;;8.00;53.50;;;;;;5129528;27;20260;-84
2022/04/20 01:34:30;;;;;;;0.30;0.20;;;7.90;53.90;;;;;;5137546;27;20198;-84
2022/04/20 01:36:57;;;;;;;0.30;0.20;;;7.90;53.70;;;;;;5135079;27;20222;-84
2022/04/20 01:39:26;;;;;;;0.30;0.30;;;7.90;53.80;;;;;;5135102;27;20197;-84
2022/04/20 01:41:53;;;;;;;0.30;0.20;;;7.80;53.90;;;;;;5117928;27;20688;-83
2022/04/20 01:44:21;;;;;;;0.40;0.40;;;7.80;53.90;;;;;;5117487;27;20828;-84
2022/04/20 01:46:47;;;;;;;0.90;0.90;;;7.80;53.80;;;;;;5134843;27;20220;-83
2022/04/20 01:49:14;;;;;;;1.00;0.65;;;7.70;54.40;;;;;;5119749;27;20210;-84
2022/04/20 01:51:54;;;;;;;2.67;2.47;;;7.80;68.60;;;;;;5119148;27;20566;-84
2022/04/20 01:54:21;;;;;;;0.50;0.50;;;7.70;53.90;;;;;;5128621;27;20206;-84
2022/04/20 01:56:51;;;;;;;0.65;0.28;;;7.70;54.20;;;;;;5135304;27;20322;-84
2022/04/20 01:59:18;;;;;;;0.30;0.20;;;7.60;54.10;;;;;;5135230;27;20203;-84
2022/04/20 02:04:30;;;;;;;0.60;0.60;;;7.60;54.60;;;;;;5117033;28;20558;-83
2022/04/20 02:06:57;;;;;;;0.30;0.20;;;7.60;54.50;;;;;;5115223;28;20202;-84
2022/04/20 02:09:25;;;;;;;0.30;0.20;;;7.50;54.50;;;;;;5116951;27;20190;-84
2022/04/20 02:11:53;;;;;;;0.30;0.28;;;7.50;55.10;;;;;;5134050;27;20194;-84
2022/04/20 02:14:20;;;;;;;0.30;0.30;;;7.40;55.50;;;;;;5125099;27;20830;-84
2022/04/20 02:16:47;;;;;;;0.30;0.20;;;7.20;55.90;;;;;;5133428;27;20222;-84
2022/04/20 02:19:14;;;;;;;0.30;0.30;;;7.10;56.00;;;;;;5120874;27;20220;-83
2022/04/20 02:21:41;;;;;;;0.40;0.40;;;6.90;74.20;;;;;;5134821;27;20195;-83
2022/04/20 02:24:08;;;;;;;0.60;0.43;;;7.00;56.50;;;;;;5133990;27;20197;-83
2022/04/20 02:26:34;;;;;;;0.40;0.20;;;6.90;56.90;;;;;;5125775;27;20202;-84
2022/04/20 02:29:03;;;;;;;0.40;0.32;;;6.70;57.50;;;;;;5134819;27;20230;-84
2022/04/20 02:31:30;;;;;;;0.40;0.40;;;6.50;58.00;;;;;;5123227;27;20216;-84
2022/04/20 02:33:57;;;;;;;0.50;0.45;;;6.40;74.80;;;;;;5124837;27;20212;-84
2022/04/20 02:36:24;;;;;;;0.30;0.20;;;7.80;60.60;;;;;;5129988;27;20304;-84
2022/04/20 02:38:51;;;;;;;0.30;0.20;;;6.10;60.00;;;;;;5128456;27;20224;-84
2022/04/20 02:41:18;;;;;;;0.38;0.38;;;5.90;60.90;;;;;;5114502;28;20197;-84
2022/04/20 02:43:45;;;;;;;0.77;0.77;;;6.00;60.70;;;;;;5116485;27;20182;-84
2022/04/20 02:46:13;;;;;;;0.40;0.30;;;5.80;61.00;;;;;;5103292;27;20229;-84
2022/04/20 02:48:41;;;;;;;0.30;0.20;;;5.70;79.80;;;;;;5133084;27;20189;-84
2022/04/20 02:51:08;;;;;;;0.30;0.30;;;5.70;62.70;;;;;;5119330;27;20221;-84
2022/04/20 02:53:35;;;;;;;0.60;0.60;;;5.60;62.90;;;;;;5124100;27;20193;-84
2022/04/20 02:56:02;;;;;;;0.40;0.30;;;5.50;63.40;;;;;;5128687;27;20304;-83
2022/04/20 02:58:29;;;;;;;0.30;0.30;;;5.40;64.40;;;;;;5115669;28;20247;-83
2022/04/20 03:00:55;;;;;;;0.82;0.82;;;5.40;64.40;;;;;;5118899;27;20289;-84
2022/04/20 03:03:24;;;;;;;0.82;0.73;;;5.40;65.10;;;;;;5122476;27;20192;-84
2022/04/20 03:05:53;;;;;;;0.30;0.20;;;5.30;65.80;;;;;;5118541;27;20190;-84
2022/04/20 03:08:20;;;;;;;0.50;0.40;;;5.40;66.20;;;;;;5122105;27;20181;-84
2022/04/20 03:10:47;;;;;;;0.30;0.30;;;5.20;67.10;;;;;;5120673;27;20202;-84
2022/04/20 03:13:15;;;;;;;0.30;0.20;;;5.20;67.40;;;;;;5114039;27;20759;-84
2022/04/20 03:15:42;;;;;;;0.30;0.20;;;5.10;68.60;;;;;;5114826;27;20210;-83
2022/04/20 03:18:10;;;;;;;1.15;0.93;;;5.20;68.00;;;;;;5128821;27;20727;-83
2022/04/20 03:20:38;;;;;;;0.55;0.55;;;4.90;67.90;;;;;;5118418;27;20190;-84
2022/04/20 03:23:06;;;;;;;0.30;0.25;;;5.00;67.50;;;;;;5121636;27;20201;-84
2022/04/20 03:25:32;;;;;;;0.57;0.50;;;4.90;68.50;;;;;;5123645;27;20193;-83
2022/04/20 03:28:00;;;;;;;0.30;0.30;;;4.80;68.20;;;;;;5135581;27;20575;-83
2022/04/20 03:30:27;;;;;;;0.30;0.30;;;4.80;70.30;;;;;;5137543;27;20198;-83
2022/04/20 03:32:54;;;;;;;0.30;0.20;;;4.70;69.70;;;;;;5117128;27;20218;-84
2022/04/20 03:35:22;;;;;;;0.30;0.20;;;4.80;69.70;;;;;;5125277;27;20216;-83
2022/04/20 03:37:50;;;;;;;0.55;0.55;;;4.70;69.90;;;;;;5134973;27;20232;-84
2022/04/20 03:40:17;;;;;;;0.30;0.30;;;4.60;70.30;;;;;;5132662;27;20221;-84
2022/04/20 03:42:44;;;;;;;0.77;0.77;;;4.60;70.10;;;;;;5124178;27;20196;-84
2022/04/20 03:45:10;;;;;;;1.05;0.77;;;4.70;70.30;;;;;;5124195;27;20202;-84
2022/04/20 03:47:38;;;;;;;0.30;0.20;;;4.70;69.30;;;;;;5116191;28;20322;-84
2022/04/20 03:50:06;;;;;;;0.40;0.40;;;4.70;69.30;;;;;;5118126;27;20208;-83
2022/04/20 03:52:33;;;;;;;0.30;0.22;;;4.70;69.10;;;;;;5132121;27;20272;-83
2022/04/20 03:55:02;;;;;;;0.68;0.68;;;4.60;69.00;;;;;;5125403;27;20224;-83
2022/04/20 03:57:29;;;;;;;0.30;0.30;;;4.70;70.10;;;;;;5127970;27;20591;-83
2022/04/20 03:59:56;;;;;;;0.35;0.32;;;4.60;69.30;;;;;;5128473;27;20198;-85
2022/04/20 04:02:23;;;;;;;0.40;0.30;;;4.60;68.40;;;;;;5127506;27;20197;-83
2022/04/20 04:04:50;;;;;;;0.30;0.30;;;4.60;67.80;;;;;;5125953;27;20242;-83
2022/04/20 04:07:17;;;;;;;0.32;0.30;;;4.60;67.80;;;;;;5114345;28;20579;-84
2022/04/20 04:09:44;;;;;;;0.88;0.75;;;4.60;67.70;;;;;;5121747;27;20668;-83
2022/04/20 04:12:12;;;;;;;0.30;0.20;;;4.70;67.50;;;;;;5128729;27;20193;-83
2022/04/20 04:14:40;;;;;;;0.68;0.68;;;4.70;67.70;;;;;;5119870;27;20209;-83
2022/04/20 04:17:07;;;;;;;0.30;0.20;;;4.50;67.90;;;;;;5130144;27;20201;-84
2022/04/20 04:19:35;;;;;;;0.30;0.20;;;4.50;67.60;;;;;;5112997;28;20205;-83
2022/04/20 04:22:02;;;;;;;0.57;0.57;;;4.50;67.70;;;;;;5129981;27;20189;-84
2022/04/20 04:24:39;;;;;;;0.40;0.40;;;4.50;68.10;;;;;;5111238;28;20736;-84
2022/04/20 04:27:08;;;;;;;0.30;0.25;;;4.40;68.40;;;;;;5118574;28;20280;-83
2022/04/20 04:29:37;;;;;;;0.43;0.43;;;4.40;68.00;;;;;;5115327;27;20196;-83
2022/04/20 04:32:05;;;;;;;0.30;0.20;;;4.40;68.30;;;;;;5132927;27;20280;-85
2022/04/20 04:34:32;;;;;;;0.93;0.82;;;4.40;68.60;;;;;;5125279;27;20217;-84
2022/04/20 04:36:59;;;;;;;0.70;0.70;;;4.50;68.40;;;;;;5112819;28;20198;-83
2022/04/20 04:39:28;;;;;;;0.30;0.30;;;4.10;67.30;;;;;;5114451;28;20305;-84
2022/04/20 04:41:59;;;;;;;0.30;0.28;;;4.30;67.80;;;;;;5115423;27;20622;-83
2022/04/20 04:44:26;;;;;;;0.38;0.38;;;4.20;69.50;;;;;;5129472;28;20204;-83
2022/04/20 04:49:39;;;;;;;0.30;0.20;;;4.20;70.60;;;;;;5099059;28;20212;-84
2022/04/20 04:52:11;;;;;;;0.30;0.20;;;4.10;69.90;;;;;;5113701;28;20198;-83
2022/04/20 04:54:39;;;;;;;0.30;0.20;;;4.10;70.80;;;;;;5123138;28;20280;-83
2022/04/20 04:57:07;;;;;;;0.30;0.28;;;4.20;72.30;;;;;;5114334;28;20190;-83
2022/04/20 04:59:34;;;;;;;0.30;0.30;;;4.10;70.50;;;;;;5131230;27;20197;-83
2022/04/20 05:02:03;;;;;;;0.30;0.20;;;4.40;73.10;;;;;;5131110;27;20201;-83
2022/04/20 05:04:30;;;;;;;1.02;0.93;;;4.40;69.60;;;;;;5115754;28;20239;-83
2022/04/20 05:06:57;;;;;;;0.30;0.20;;;4.50;70.00;;;;;;5131990;27;20237;-83
2022/04/20 05:09:24;;;;;;;0.30;0.20;;;4.50;70.30;;;;;;5137057;27;20213;-83
2022/04/20 05:11:51;;;;;;;0.30;0.20;;;4.50;70.80;;;;;;5136822;27;20201;-83
2022/04/20 05:14:18;;;;;;;0.30;0.20;;;4.50;71.00;;;;;;5119059;27;20618;-84
2022/04/20 05:16:45;;;;;;;0.82;0.77;;;4.60;70.90;;;;;;5113722;27;20210;-84
2022/04/20 05:19:13;;;;;;;0.30;0.20;;;4.60;70.60;;;;;;5116514;27;20598;-84
2022/04/20 05:21:40;;;;;;;0.30;0.30;;;4.70;70.40;;;;;;5116767;28;20197;-84
2022/04/20 05:24:08;;;;;;;0.45;0.45;;;4.70;70.50;;;;;;5127385;27;20725;-84
2022/04/20 05:26:35;;;;;;;0.45;0.43;;;4.80;70.20;;;;;;5136839;27;20285;-83
2022/04/20 05:29:02;;;;;;;0.45;0.35;;;4.90;70.10;;;;;;5120340;27;20200;-84
2022/04/20 05:31:29;;;;;;;0.30;0.30;;;5.10;70.40;;;;;;5129625;27;20289;-82
2022/04/20 05:33:56;;;;;;;0.30;0.20;;;5.30;71.50;;;;;;5135306;27;20196;-83
2022/04/20 05:36:24;;;;;;;0.32;0.32;;;5.20;69.00;;;;;;5116877;28;20630;-83
2022/04/20 05:41:41;;;;;;;0.82;0.82;;;5.50;69.00;;;;;;5106341;28;20214;-84
2022/04/20 05:44:08;;;;;;;0.47;0.47;;;5.60;68.70;;;;;;5127145;27;20214;-83
2022/04/20 05:46:35;;;;;;;0.47;0.30;;;5.60;68.80;;;;;;5117612;27;20222;-84
2022/04/20 05:49:02;;;;;;;0.40;0.30;;;5.70;68.20;;;;;;5119533;27;20200;-83
2022/04/20 05:51:30;;;;;;;0.60;0.32;;;5.80;67.60;;;;;;5116241;27;20212;-83
2022/04/20 05:53:57;;;;;;;0.50;0.50;;;6.00;66.00;;;;;;5128235;27;20225;-83
2022/04/20 05:56:24;;;;;;;0.30;0.20;;;6.30;61.90;;;;;;5135584;27;20206;-84
2022/04/20 05:58:52;;;;;;;0.60;0.57;;;6.50;60.40;;;;;;5121420;27;20293;-83
2022/04/20 06:01:19;;;;;;;0.30;0.20;;;6.80;60.20;;;;;;5121350;27;20201;-83
2022/04/20 06:03:47;;;;;;;0.30;0.20;;;7.10;59.70;;;;;;5123047;27;20213;-83
2022/04/20 06:06:14;;;;;;;0.30;0.20;;;7.20;58.60;;;;;;5116602;27;20228;-83
2022/04/20 06:08:43;;;;;;;0.30;0.20;;;7.40;63.10;;;;;;5116272;27;20225;-84
2022/04/20 06:11:11;;;;;;;0.30;0.30;;;7.20;58.40;;;;;;5119816;27;20221;-83
2022/04/20 06:13:38;;;;;;;0.40;0.40;;;7.40;58.60;;;;;;5134786;27;20193;-83
2022/04/20 06:16:08;;;;;;;0.57;0.55;;;7.50;58.20;;;;;;5116806;27;20222;-84
2022/04/20 06:18:35;;;;;;;0.40;0.40;;;7.60;57.30;;;;;;5130462;27;20197;-84
2022/04/20 06:21:05;;;;;;;0.30;0.20;;;7.50;57.30;;;;;;5132845;27;20197;-83
2022/04/20 06:23:32;;;;;;;0.50;0.50;;;7.60;56.40;;;;;;5108149;28;20572;-83
2022/04/20 06:26:02;;;;;;;0.30;0.20;;;7.80;56.60;;;;;;5114290;27;20198;-82
2022/04/20 06:28:29;;;;;;;0.40;0.20;;;7.90;55.90;;;;;;5119852;27;20222;-84
2022/04/20 06:30:56;;;;;;;0.40;0.30;;;7.90;55.90;;;;;;5102129;27;20199;-84
2022/04/20 06:33:23;;;;;;;0.40;0.35;;;7.80;55.10;;;;;;5108257;27;20198;-83
2022/04/20 06:35:51;;;;;;;0.30;0.20;;;7.90;54.90;;;;;;5117526;27;20196;-84
2022/04/20 06:38:18;;;;;;;0.30;0.20;;;7.90;55.10;;;;;;5104809;27;20210;-84
2022/04/20 06:40:45;;;;;;;0.30;0.20;;;8.00;54.90;;;;;;5106332;27;20198;-82
2022/04/20 06:43:14;;;;;;;0.30;0.20;;;8.00;54.40;;;;;;5116908;28;20210;-83
2022/04/20 06:45:41;;;;;;;0.47;0.43;;;8.00;54.50;;;;;;5111737;27;20205;-83
2022/04/20 06:48:08;;;;;;;0.30;0.20;;;8.00;54.90;;;;;;5106321;28;20217;-82
2022/04/20 06:50:36;;;;;;;0.30;0.22;;;8.10;54.90;;;;;;5113176;27;20651;-83
2022/04/20 06:58:35;;;;;;;0.65;0.45;;;8.40;55.30;;;;;;5112637;28;20217;-83
2022/04/20 07:01:07;;;;;;;1.98;0.80;;;8.50;54.80;;;;;;5119186;27;20326;-84
2022/04/20 07:03:35;;;;;;;0.40;0.25;;;8.60;55.20;;;;;;5100879;28;20198;-83
2022/04/20 07:06:02;;;;;;;0.65;0.60;;;8.50;54.40;;;;;;5111985;27;20268;-84
2022/04/20 07:08:30;;;;;;;0.40;0.40;;;8.70;54.40;;;;;;5113897;27;20746;-83
2022/04/20 07:10:58;;;;;;;0.30;0.17;;;8.70;54.60;;;;;;5112630;27;20602;-83
2022/04/20 07:13:25;;;;;;;0.30;0.20;;;8.70;54.10;;;;;;5111431;28;20285;-83
2022/04/20 07:15:53;;;;;;;0.30;0.30;;;9.30;55.10;;;;;;5117190;27;20188;-83
2022/04/20 07:18:20;;;;;;;0.60;0.47;;;9.10;54.10;;;;;;5115964;27;20195;-83
2022/04/20 07:20:47;;;;;;;0.40;0.35;;;9.00;54.00;;;;;;5112050;27;20310;-83
2022/04/20 07:23:14;;;;;;;0.50;0.50;;;9.20;54.30;;;;;;5122320;27;20228;-83
2022/04/20 07:25:41;;;;;;;0.30;0.20;;;9.30;53.90;;;;;;5121596;27;20195;-84
2022/04/20 07:28:08;;;;;;;0.30;0.20;;;9.20;52.70;;;;;;5110706;28;20366;-84
2022/04/20 07:30:36;;;;;;;0.40;0.40;;;9.10;52.30;;;;;;5112438;27;20267;-83
2022/04/20 07:33:05;;;;;;;0.95;0.77;;;9.70;52.90;;;;;;5113003;28;20201;-83
2022/04/20 07:35:32;;;;;;;0.30;0.20;;;9.30;52.90;;;;;;5122957;27;20193;-83
2022/04/20 07:37:59;;;;;;;3.35;1.23;;;9.30;53.10;;;;;;5111065;27;20674;-84
2022/04/20 07:40:26;;;;;;;0.30;0.25;;;9.20;51.80;;;;;;5112405;28;20234;-82
2022/04/20 07:42:55;;;;;;;0.30;0.30;;;9.50;52.40;;;;;;5122996;27;20730;-84
2022/04/20 07:45:25;;;;;;;0.52;0.52;;;9.50;52.10;;;;;;5130020;27;20185;-83
2022/04/20 07:47:53;;;;;;;0.73;0.73;;;9.50;51.50;;;;;;5098339;28;20623;-83
2022/04/20 07:50:23;;;;;;;0.50;0.20;;;9.60;50.90;;;;;;5110930;28;20205;-83
2022/04/20 07:52:52;;;;;;;0.60;0.60;;;9.50;51.40;;;;;;5111323;28;20291;-83
2022/04/20 07:55:21;;;;;;;0.30;0.20;;;9.60;52.20;;;;;;5111473;27;20711;-83
2022/04/20 07:57:48;;;;;;;0.68;0.68;;;9.60;52.40;;;;;;5119038;27;20545;-84
2022/04/20 08:00:16;;;;;;;0.63;0.63;;;9.70;51.50;;;;;;5127566;27;20260;-84
2022/04/20 08:02:44;;;;;;;0.30;0.20;;;9.70;51.60;;;;;;5108587;27;20250;-83
2022/04/20 08:05:12;;;;;;;0.50;0.20;;;9.80;51.70;;;;;;5114290;27;20189;-82
2022/04/20 08:07:41;;;;;;;0.60;0.60;;;9.90;51.60;;;;;;5129778;27;20311;-81
2022/04/20 08:10:10;;;;;;;0.40;0.30;;;9.80;51.30;;;;;;5128352;27;20599;-82
2022/04/20 08:12:38;;;;;;;0.68;0.30;;;10.00;51.80;;;;;;5124955;27;20190;-82
2022/04/20 08:15:06;;;;;;;0.30;0.15;;;10.00;51.10;;;;;;5112236;28;20296;-82
2022/04/20 08:17:34;;;;;;;0.40;0.20;;;10.20;50.70;;;;;;5108451;28;20567;-81
2022/04/20 08:20:01;;;;;;;1.38;1.27;;;10.20;50.80;;;;;;5108936;28;20250;-81
2022/04/20 08:22:28;;;;;;;1.50;0.80;;;10.30;50.30;;;;;;5108997;28;20244;-82
2022/04/20 08:24:57;;;;;;;0.60;0.40;;;10.40;50.80;;;;;;5109668;28;20285;-82
2022/04/20 08:27:24;;;;;;;0.93;0.30;;;11.00;50.20;;;;;;5121435;28;20296;-82
2022/04/20 08:29:52;;;;;;;0.37;0.37;;;10.50;49.50;;;;;;5103255;28;20273;-83
2022/04/20 08:32:19;;;;;;;0.77;0.70;;;10.70;49.80;;;;;;5108902;28;20638;-83
2022/04/20 08:34:48;;;;;;;6.10;0.77;;;10.70;50.10;;;;;;5126654;28;20200;-81
2022/04/20 08:37:16;;;;;;;0.82;0.68;;;10.80;49.80;;;;;;5113511;27;20217;-82
2022/04/20 08:39:42;;;;;;;0.30;0.20;;;10.70;49.70;;;;;;5107513;28;20193;-82
2022/04/20 08:42:12;;;;;;;1.00;0.90;;;10.90;50.30;;;;;;5114111;28;20722;-82
2022/04/20 08:44:47;;;;;;;2.40;0.30;;;11.10;50.60;;;;;;5129739;27;20622;-82
2022/04/20 08:47:21;;;;;;;0.40;0.35;;;11.20;49.10;;;;;;5109856;27;20292;-81
2022/04/20 08:49:50;;;;;;;0.40;0.30;;;11.10;49.20;;;;;;5119950;27;20201;-82
2022/04/20 08:55:03;;;;;;;0.40;0.40;;;11.30;49.70;;;;;;5117473;27;20642;-81
2022/04/20 08:57:33;;;;;;;0.30;0.20;;;11.50;50.20;;;;;;5129718;27;20615;-81
2022/04/20 09:00:01;;;;;;;0.80;0.35;;;11.70;49.10;;;;;;5112164;28;21023;-81
2022/04/20 09:02:29;;;;;;;0.30;0.20;;;11.70;48.40;;;;;;5117585;27;20190;-83
2022/04/20 09:04:56;;;;;;;0.30;0.30;;;11.80;48.40;;;;;;5122160;27;20803;-81
2022/04/20 09:07:24;;;;;;;0.70;0.70;;;11.70;47.40;;;;;;5123032;27;20658;-83
2022/04/20 09:09:52;;;;;;;0.40;0.30;;;11.70;49.30;;;;;;5114339;27;20615;-82
2022/04/20 09:12:22;;;;;;;0.37;0.30;;;11.70;49.50;;;;;;5126874;27;20683;-81
2022/04/20 09:14:53;;;;;;;0.83;0.83;;;11.80;48.00;;;;;;5133798;27;20620;-82
2022/04/20 09:17:21;;;;;;;0.30;0.20;;;11.90;48.50;;;;;;5117294;27;20628;-82
2022/04/20 09:19:51;;;;;;;1.13;0.63;;;12.10;47.60;;;;;;5112007;28;20731;-81
2022/04/20 09:22:20;;;;;;;0.30;0.20;;;12.20;47.00;;;;;;5120550;27;20626;-82
2022/04/20 09:25:04;;;;;;;0.40;0.40;;;12.10;47.20;;;;;;5123944;27;20627;-82
2022/04/20 09:27:32;;;;;;;0.50;0.50;;;12.20;47.40;;;;;;5119505;27;20961;-81
2022/04/20 09:30:00;;;;;;;0.60;0.60;;;12.40;47.30;;;;;;5111344;27;20677;-83
2022/04/20 09:32:32;;;;;;;0.30;0.20;;;12.60;47.00;;;;;;5131610;27;20630;-81
2022/04/20 09:34:59;;;;;;;0.60;0.47;;;12.40;47.20;;;;;;5115498;27;20633;-82
2022/04/20 09:37:27;;;;;;;0.60;0.60;;;12.60;46.90;;;;;;5126933;27;20668;-82
2022/04/20 09:39:54;;;;;;;0.70;0.47;;;12.70;46.70;;;;;;5111802;28;20692;-82
2022/04/20 09:42:22;;;;;;;0.40;0.30;;;12.80;46.90;;;;;;5128574;27;20622;-82
2022/04/20 09:44:57;;;;;;;0.33;0.23;;;12.90;47.10;;;;;;5130300;27;21034;-82
2022/04/20 09:50:13;;;;;;;0.50;0.50;;;13.20;47.00;;;;;;5120798;27;20614;-82
2022/04/20 09:52:41;;;;;;;1.07;0.67;;;13.00;46.60;;;;;;5128287;27;20626;-82
2022/04/20 09:55:11;;;;;;;0.57;0.57;;;13.20;46.60;;;;;;5123634;27;20615;-83
2022/04/20 09:57:38;;;;;;;0.80;0.73;;;13.00;46.30;;;;;;5131392;27;20630;-82
2022/04/20 10:00:10;;;;;;;1.07;0.73;;;13.30;44.90;;;;;;5124162;27;20755;-82
2022/04/20 10:02:46;;;;;;;0.80;0.50;;;13.20;44.80;;;;;;5094366;28;20958;-81
2022/04/20 10:05:14;;;;;;;0.50;0.40;;;13.20;45.10;;;;;;5111397;27;20714;-82
2022/04/20 10:07:41;;;;;;;0.60;0.60;;;13.20;45.60;;;;;;5119583;27;20904;-81
2022/04/20 10:10:09;;;;;;;0.90;0.90;;;13.40;45.10;;;;;;5131421;27;20647;-83
2022/04/20 10:12:39;;;;;;;0.90;0.63;;;13.40;43.80;;;;;;5132413;27;20618;-82
2022/04/20 10:17:56;;;;;;;0.60;0.60;;;13.40;43.20;;;;;;5124294;27;20618;-82
2022/04/20 10:20:26;;;;;;;0.50;0.30;;;13.50;43.00;;;;;;5125975;27;20623;-82
2022/04/20 10:22:54;;;;;;;3.27;0.60;;;13.60;44.20;;;;;;5113591;28;20616;-81
2022/04/20 10:25:22;;;;;;;1.80;0.63;;;13.60;43.70;;;;;;5112185;28;20619;-82
2022/04/20 10:28:00;;;;;;;0.40;0.30;;;13.70;43.00;;;;;;5112880;28;21182;-82
2022/04/20 10:30:38;;;;;;;1.23;1.10;;;13.80;43.40;;;;;;5099071;28;20666;-81
2022/04/20 10:33:10;;;;;;;1.17;0.70;;;13.90;43.50;;;;;;5091879;28;21085;-82
2022/04/20 10:35:59;;;;;;;3.53;0.80;;;13.90;42.30;;;;;;5091189;28;20619;-82
2022/04/20 10:38:27;;;;;;;1.13;0.50;;;14.00;42.70;;;;;;5112336;28;21222;-81
2022/04/20 10:41:02;;;;;;;0.40;0.30;;;14.00;42.60;;;;;;5113160;28;20636;-81
2022/04/20 10:43:30;;;;;;;1.07;0.60;;;14.10;41.60;;;;;;5114644;28;21192;-84
2022/04/20 10:46:08;;;;;;;0.70;0.70;;;14.10;41.70;;;;;;5111377;28;20945;-83
2022/04/20 10:48:48;;;;;;;1.17;0.77;;;14.10;41.00;;;;;;5113891;28;20631;-82
2022/04/20 10:51:17;;;;;;;0.37;0.37;;;14.30;42.60;;;;;;5094447;28;20614;-82
2022/04/20 10:53:46;;;;;;;0.40;0.40;;;14.40;41.40;;;;;;5093674;28;20675;-83
2022/04/20 10:56:13;;;;;;;0.83;0.77;;;14.30;40.80;;;;;;5092212;28;20617;-83
2022/04/20 10:58:52;;;;;;;1.10;1.10;;;14.50;41.00;;;;;;5116176;27;20639;-81
2022/04/20 11:01:19;;;;;;;0.83;0.60;;;14.50;42.00;;;;;;5136883;27;20620;-82
2022/04/20 11:04:06;;;;;;;0.40;0.40;;;14.60;41.60;;;;;;5129765;27;20716;-82
2022/04/20 11:07:12;;;;;;;0.40;0.40;;;14.80;41.50;;;;;;5100632;27;20613;-82
2022/04/20 11:10:07;;;;;;;0.43;0.43;;;14.80;41.30;;;;;;5112689;28;20677;-82
2022/04/20 11:18:42;;;;;;;0.30;0.20;;;15.30;40.60;;;;;;5134235;27;20659;-81
2022/04/20 11:21:16;;;;;;;0.30;0.20;;;15.30;41.10;;;;;;5125249;27;20645;-82
2022/04/20 11:23:50;;;;;;;0.83;0.63;;;15.50;40.70;;;;;;5116078;27;20618;-82
2022/04/20 11:26:20;;;;;;;1.07;0.70;;;15.80;40.70;;;;;;5129315;27;20678;-82
2022/04/20 11:28:47;;;;;;;2.00;0.83;;;15.90;40.30;;;;;;5124458;27;20662;-82
2022/04/20 11:31:15;;;;;;;1.20;0.93;;;16.10;39.40;;;;;;5109608;27;20641;-82
2022/04/20 11:33:42;;;;;;;0.60;0.40;;;16.30;39.30;;;;;;5113221;28;20720;-82
2022/04/20 11:36:13;;;;;;;0.37;0.30;;;16.50;38.80;;;;;;5111893;27;21247;-81
2022/04/20 11:38:41;;;;;;;1.93;0.80;;;16.70;38.60;;;;;;5119288;27;20615;-82
2022/04/20 11:41:09;;;;;;;0.60;0.60;;;16.60;40.40;;;;;;5120349;27;20668;-82
2022/04/20 11:43:36;;;;;;;0.50;0.40;;;17.20;39.40;;;;;;5111185;27;20960;-82
2022/04/20 11:46:04;;;;;;;0.70;0.67;;;17.60;37.80;;;;;;5109690;28;20624;-82
2022/04/20 11:48:32;;;;;;;0.40;0.30;;;17.70;39.00;;;;;;5115013;27;21014;-82
2022/04/20 11:51:00;;;;;;;0.80;0.73;;;18.00;38.10;;;;;;5110260;28;20668;-83
2022/04/20 11:53:35;;;;;;;2.10;1.00;;;18.70;38.30;;;;;;5109644;27;20612;-83
2022/04/20 11:56:03;;;;;;;0.40;0.40;;;19.40;37.60;;;;;;5125984;27;20629;-82
2022/04/20 11:58:30;;;;;;;1.27;1.17;;;20.30;36.10;;;;;;5118007;27;20635;-84
2022/04/20 12:01:05;;;;;;;0.93;0.57;;;21.40;35.20;;;;;;5109227;28;20659;-84
2022/04/20 12:03:36;;;;;;;0.50;0.43;;;22.10;33.60;;;;;;5127622;27;20622;-84
2022/04/20 12:06:04;;;;;;;0.87;0.87;;;22.30;34.10;;;;;;5118054;27;20635;-83
2022/04/20 12:08:32;;;;;;;1.20;1.20;;;22.80;33.60;;;;;;5112624;27;20700;-84
2022/04/20 12:11:04;;;;;;;1.27;0.70;;;23.50;32.40;;;;;;5128962;27;20619;-83
2022/04/20 12:13:31;;;;;;;0.77;0.77;;;23.50;32.00;;;;;;5120852;27;20983;-84
2022/04/20 12:16:03;;;;;;;1.10;0.80;;;23.80;31.90;;;;;;5114164;28;21054;-83
2022/04/20 12:18:32;;;;;;;0.67;0.67;;;23.90;31.30;;;;;;5112129;27;20688;-84
2022/04/20 12:20:59;;;;;;;0.67;0.67;;;23.90;30.80;;;;;;5113035;28;20619;-83
2022/04/20 12:23:33;;;;;;;0.63;0.63;;;23.80;31.80;;;;;;5109596;28;20618;-83
2022/04/20 12:26:03;;;;;;;0.67;0.67;;;24.10;31.00;;;;;;5100795;28;20725;-84
2022/04/20 12:28:45;;;;;;;1.30;1.20;;;24.30;30.20;;;;;;5116027;27;20839;-83
2022/04/20 12:31:13;;;;;;;1.10;1.00;;;24.50;30.20;;;;;;5096260;28;20219;-84
2022/04/20 12:33:41;;;;;;;0.70;0.70;;;24.50;30.40;;;;;;5127719;27;20650;-84
2022/04/20 12:36:10;;;;;;;1.07;0.73;;;24.70;32.10;;;;;;5113771;27;20631;-84
2022/04/20 12:38:48;;;;;;;0.87;0.87;;;25.00;30.10;;;;;;5100362;27;20682;-84
2022/04/20 12:41:35;;;;;;;0.90;0.90;;;25.10;29.80;;;;;;5117784;27;20627;-84
2022/04/20 12:44:24;;;;;;;1.10;0.80;;;25.00;30.30;;;;;;5120082;28;21206;-84
2022/04/20 12:46:51;;;;;;;0.90;0.90;;;25.20;30.40;;;;;;5108738;28;20726;-84
2022/04/20 12:49:23;;;;;;;0.87;0.83;;;25.80;29.20;;;;;;5110461;28;20620;-85
2022/04/20 12:51:50;;;;;;;0.80;0.60;;;26.20;28.60;;;;;;5117067;27;20615;-85
2022/04/20 12:54:23;;;;;;;1.00;0.77;;;26.40;28.30;;;;;;5127288;27;21012;-84
2022/04/20 13:02:20;;;;;;;0.93;0.73;;;26.80;28.50;;;;;;5121808;28;20622;-85
2022/04/20 13:04:48;;;;;;;0.83;0.83;;;26.50;28.40;;;;;;5114539;27;21243;-84
2022/04/20 13:07:15;;;;;;;0.80;0.80;;;;;;;;;;5114984;28;20637;-84
2022/04/20 13:09:42;;;;;;;0.60;0.60;;;27.00;28.00;;;;;;5124943;27;20925;-83
2022/04/20 13:12:11;;;;;;;0.60;0.60;;;27.30;28.40;;;;;;5109200;28;20727;-83
2022/04/20 13:14:41;;;;;;;0.83;0.53;;;27.40;27.60;;;;;;5110487;28;20647;-84
2022/04/20 13:17:09;;;;;;;1.13;1.03;;;27.00;27.30;;;;;;5114842;28;20641;-84
2022/04/20 13:19:37;;;;;;;0.50;0.43;;;26.90;27.90;;;;;;5116829;27;20692;-85
2022/04/20 13:22:05;;;;;;;0.50;0.50;;;27.30;27.30;;;;;;5109480;28;20627;-86
2022/04/20 13:30:02;;;;;;;0.73;0.60;;;27.70;31.20;;;;;;5100569;27;20723;-84
2022/04/20 13:32:29;;;;;;;0.90;0.70;;;27.90;26.70;;;;;;5115352;27;20619;-83
2022/04/20 13:34:56;;;;;;;0.33;0.33;;;27.80;30.70;;;;;;5132588;27;20619;-84
2022/04/20 13:37:23;;;;;;;0.60;0.50;;;27.80;26.30;;;;;;5112326;28;20685;-84
2022/04/20 13:39:50;;;;;;;0.53;0.50;;;28.20;26.00;;;;;;5114557;27;21315;-84